Hauptseite
METAR-TAF:

METAR-TAF

Flughäfen :

Kiel, Deutschland

Flughafen Kiel

Breite: 54-23N, Länge: 010-10E, Höhe: 31 m

Beobachtung

Neuester Wetterbericht von vor 35 Minuten, um 07:20 UTC
Wind 6 kt aus Südost, variierte zwischen Ost/Südost und Süd
Temperatur 18°C
Luftfeuchtigkeit 83%
Luftdruck 1017 hPa
Sichtweite 10 km oder mehr
keine Wolken unter 1500 m und keine Kumulonimbus oder Gewitterwolken

METAR: EDHK 170720Z 14006KT 110V170 CAVOK 18/15 Q1017

Zeit: 09:55 (07:55 UTC)

Prognose

Neuester Wetterbericht von vor 35 Minuten, um 07:20 UTC
Gültige Prognose vom 17 um 08 UTC bis 17 um 15 UTC
Wind 7 kt aus Süd/Südost
Sichtweite 10 km oder mehr
Leicht bewölkt in der Höhe von 3500 ft

TAF: EDHK 170720Z 1708/1715 15007KT 9999 FEW035

Wetterbeobachtungen und Prognosen von mehr als 4000 Flughäfen (METAR und TAF Bericht).

Die verfügbaren Stationen werden durch gelbe und rote Markierungen auf der Karte dargestellt.

Führen Sie die Maus auf sie, um den Namen der Station zu sehen.

Darauf klicken, um die Beobachtung von Wetterbeobachtungen und Prognosen zu sehen.

Um die Karte zu ändern : klicken Sie auf den grünen Tasten mit einem schwarzen Kreuz Zum Vergrößern, auf den grünen Button mit einem Gedankenstrich zu verkleinern, oder auf die grünen Pfeile für benachbarte Karten.


METAR-TAF: